This is the latest recevied weather packets stored in our database for station/object IZ1RFL-3. If no packets are shown the sender has not sent any weather packets the latest 10 day(s).
| Time | Temp. | Humidity | Pressure | Rain* | Wind** | Luminosity | Snow |
|---|---|---|---|---|---|---|---|
| 1777716063 | 20.56° C | 30% | 1026.7 hPa | - | - | - | - |
| 1777715163 | 19.44° C | 33% | 1026.9 hPa | - | - | - | - |
| 1777714263 | 18.89° C | 36% | 1027 hPa | - | - | - | - |
| 1777713363 | 20.56° C | 37% | 1027.2 hPa | - | - | - | - |
| 1777712463 | 20.56° C | 35% | 1027.3 hPa | - | - | - | - |
| 1777711563 | 20° C | 39% | 1027.4 hPa | - | - | - | - |
| 1777710662 | 18.89° C | 43% | 1027.5 hPa | - | - | - | - |
| 1777709763 | 17.78° C | 43% | 1027.5 hPa | - | - | - | - |
| 1777708863 | 17.78° C | 42% | 1027.6 hPa | - | - | - | - |
| 1777707966 | 17.22° C | 47% | 1027.6 hPa | - | - | - | - |
| 1777707063 | 17.78° C | 43% | 1027.7 hPa | - | - | - | - |
| 1777706163 | 17.78° C | 42% | 1027.6 hPa | - | - | - | - |
| 1777705263 | 17.22° C | 44% | 1027.6 hPa | - | - | - | - |
| 1777704363 | 17.22° C | 43% | 1027.5 hPa | - | - | - | - |
| 1777703463 | 16.11° C | 45% | 1027.5 hPa | - | - | - | - |
| 1777702563 | 15.56° C | 48% | 1027.5 hPa | - | - | - | - |
| 1777701662 | 14.44° C | 52% | 1027.6 hPa | - | - | - | - |
| 1777700762 | 12.22° C | 60% | 1027.6 hPa | - | - | - | - |
| 1777699863 | 12.22° C | 61% | 1027.5 hPa | - | - | - | - |
| 1777698962 | 11.67° C | 61% | 1027.3 hPa | - | - | - | - |
| 1777698062 | 12.22° C | 60% | 1027.2 hPa | - | - | - | - |
| 1777697163 | 11.67° C | 60% | 1027.3 hPa | - | - | - | - |
| 1777696262 | 11.11° C | 63% | 1027.2 hPa | - | - | - | - |
| 1777695363 | 10° C | 65% | 1027 hPa | - | - | - | - |
| 1777694462 | 10.56° C | 64% | 1027.1 hPa | - | - | - | - |
* Rain since midnight (hover to see other rain measurements)
** Current wind speed in m/s (hover to see current wind gust speed)